Time;durP1;ratioP1;P1;durP2;ratioP2;P2;SDS_P1;SDS_P2;PMS_P1;PMS_P2;Temp;Humidity;BMP_temperature;BMP_pressure;BME280_temperature;BME280_humidity;BME280_pressure;Samples;Min_cycle;Max_cycle;Signal;HPM_P1;HPM_P2
2022/10/24 00:01:39;;;;;;;;;;;;;;;12.43;100.00;100242.31;4972502;28;19930;-74
2022/10/24 00:04:05;;;;;;;;;;;;;;;12.42;100.00;100243.25;4975319;28;19930;-74
2022/10/24 00:06:30;;;;;;;;;;;;;;;12.42;100.00;100237.94;4974139;28;19925;-74
2022/10/24 00:08:56;;;;;;;;;;;;;;;12.42;100.00;100246.75;4974426;28;19930;-74
2022/10/24 00:11:23;;;;;;;;;;;;;;;12.46;100.00;100244.75;4973815;28;19934;-74
2022/10/24 00:13:49;;;;;;;;;;;;;;;12.48;100.00;100230.44;4975989;28;20297;-74
2022/10/24 00:16:15;;;;;;;;;;;;;;;12.51;100.00;100234.69;4956398;28;20335;-74
2022/10/24 00:18:40;;;;;;;;;;;;;;;12.52;100.00;100244.34;4957618;28;19926;-74
2022/10/24 00:21:06;;;;;;;;;;;;;;;12.53;100.00;100240.75;4939328;28;20021;-74
2022/10/24 00:23:31;;;;;;;;;;;;;;;12.54;100.00;100242.47;4939366;28;19977;-74
2022/10/24 00:26:00;;;;;;;;;;;;;;;12.57;100.00;100236.97;4958181;28;19972;-74
2022/10/24 00:28:26;;;;;;;;;;;;;;;12.58;100.00;100235.19;4975522;28;19930;-74
2022/10/24 00:30:51;;;;;;;;;;;;;;;12.61;100.00;100245.59;4973443;28;19926;-74
2022/10/24 00:33:17;;;;;;;;;;;;;;;12.63;100.00;100244.53;4976174;28;20614;-74
2022/10/24 00:35:42;;;;;;;;;;;;;;;12.67;100.00;100231.06;4956498;28;22123;-74
2022/10/24 00:38:08;;;;;;;;;;;;;;;12.68;100.00;100235.44;4952712;28;19984;-74
2022/10/24 00:40:33;;;;;;;;;;;;;;;12.69;100.00;100229.19;4952503;28;20059;-74
2022/10/24 00:42:58;;;;;;;;;;;;;;;12.67;100.00;100228.41;4942412;28;20305;-74
2022/10/24 00:45:35;;;;;;;;;;;;;;;12.67;100.00;100228.41;4975093;28;19930;-75
2022/10/24 00:48:01;;;;;;;;;;;;;;;12.68;100.00;100232.78;4954186;28;19999;-74
2022/10/24 00:50:26;;;;;;;;;;;;;;;12.68;100.00;100227.47;4958424;28;19930;-74
2022/10/24 00:52:51;;;;;;;;;;;;;;;12.70;100.00;100221.09;4953791;28;20000;-74
2022/10/24 00:55:17;;;;;;;;;;;;;;;12.71;100.00;100220.16;4957516;28;19940;-74
2022/10/24 00:57:44;;;;;;;;;;;;;;;12.74;100.00;100219.09;4976118;28;19999;-74
2022/10/24 01:00:12;;;;;;;;;;;;;;;12.73;100.00;100212.06;4976010;28;19983;-74
2022/10/24 01:02:37;;;;;;;;;;;;;;;12.72;100.00;100208.59;4976217;28;19925;-74
2022/10/24 01:05:03;;;;;;;;;;;;;;;12.73;100.00;100204.97;4956328;28;19984;-73
2022/10/24 01:07:31;;;;;;;;;;;;;;;12.77;100.00;100205.63;4939935;28;19925;-74
2022/10/24 01:10:16;;;;;;;;;;;;;;;12.80;100.00;100218.69;4975113;28;19926;-74
2022/10/24 01:12:54;;;;;;;;;;;;;;;12.84;100.00;100212.25;4976166;28;19929;-74
2022/10/24 01:15:27;;;;;;;;;;;;;;;12.90;100.00;100211.84;4955680;28;19929;-74
2022/10/24 01:17:57;;;;;;;;;;;;;;;12.95;100.00;100208.00;4955565;28;20396;-74
2022/10/24 01:20:38;;;;;;;;;;;;;;;12.99;100.00;100198.91;4955282;28;19930;-74
2022/10/24 01:23:26;;;;;;;;;;;;;;;13.05;100.00;100190.53;4975966;28;20408;-74
2022/10/24 01:26:04;;;;;;;;;;;;;;;13.11;100.00;100189.25;4975877;28;19930;-74
2022/10/24 01:28:29;;;;;;;;;;;;;;;13.14;100.00;100181.94;4974757;28;20375;-74
2022/10/24 01:31:05;;;;;;;;;;;;;;;13.18;100.00;100187.88;4951566;28;19938;-74
2022/10/24 01:33:31;;;;;;;;;;;;;;;13.22;100.00;100183.22;4968784;28;19938;-74
2022/10/24 01:36:16;;;;;;;;;;;;;;;13.25;100.00;100188.34;4950248;28;19926;-74
2022/10/24 01:38:56;;;;;;;;;;;;;;;13.27;100.00;100174.00;4954320;28;19930;-75
2022/10/24 01:41:22;;;;;;;;;;;;;;;13.31;100.00;100164.00;4947455;28;20032;-74
2022/10/24 01:44:01;;;;;;;;;;;;;;;13.33;100.00;100159.44;4949649;28;19926;-74
2022/10/24 01:46:28;;;;;;;;;;;;;;;13.35;100.00;100169.97;4946764;28;19929;-74
2022/10/24 01:48:56;;;;;;;;;;;;;;;13.35;100.00;100157.50;4955244;28;20364;-74
2022/10/24 01:51:21;;;;;;;;;;;;;;;13.36;100.00;100159.25;4947012;28;19961;-74
2022/10/24 01:53:47;;;;;;;;;;;;;;;13.37;100.00;100154.75;4950214;28;20341;-75
2022/10/24 01:56:12;;;;;;;;;;;;;;;13.35;100.00;100152.19;4950196;28;19969;-74
2022/10/24 01:58:37;;;;;;;;;;;;;;;13.34;100.00;100141.69;4953478;28;20627;-74
2022/10/24 02:01:07;;;;;;;;;;;;;;;13.31;100.00;100146.22;4950059;28;19962;-75
2022/10/24 02:03:44;;;;;;;;;;;;;;;13.31;100.00;100140.91;4950580;28;20386;-74
2022/10/24 02:06:10;;;;;;;;;;;;;;;13.31;100.00;100132.94;4950375;28;19973;-74
2022/10/24 02:08:38;;;;;;;;;;;;;;;13.33;100.00;100132.00;4947813;28;19931;-75
2022/10/24 02:11:04;;;;;;;;;;;;;;;13.34;100.00;100123.06;4947002;28;19930;-74
2022/10/24 02:13:41;;;;;;;;;;;;;;;13.35;100.00;100122.13;4952173;28;19939;-74
2022/10/24 02:16:06;;;;;;;;;;;;;;;13.35;100.00;100120.28;4948829;28;19926;-74
2022/10/24 02:18:31;;;;;;;;;;;;;;;13.36;100.00;100108.72;4936974;28;19992;-74
2022/10/24 02:21:12;;;;;;;;;;;;;;;13.37;100.00;100106.91;4947820;28;21469;-74
2022/10/24 02:23:42;;;;;;;;;;;;;;;13.36;100.00;100111.38;4954631;28;19973;-74
2022/10/24 02:26:09;;;;;;;;;;;;;;;13.36;100.00;100099.88;4954655;28;19930;-74
2022/10/24 02:28:37;;;;;;;;;;;;;;;13.34;100.00;100097.31;4951515;28;19933;-74
2022/10/24 02:31:08;;;;;;;;;;;;;;;13.34;100.00;100092.00;4949618;28;19926;-74
2022/10/24 02:33:33;;;;;;;;;;;;;;;13.32;100.00;100091.28;4950663;28;19967;-74
2022/10/24 02:35:59;;;;;;;;;;;;;;;13.30;100.00;100091.38;4949601;28;20381;-74
2022/10/24 02:38:34;;;;;;;;;;;;;;;13.31;100.00;100086.91;4952816;28;19934;-74
2022/10/24 02:41:00;;;;;;;;;;;;;;;13.30;100.00;100087.88;4948499;28;19926;-74
2022/10/24 02:43:25;;;;;;;;;;;;;;;13.28;100.00;100090.63;4955184;28;19985;-74
2022/10/24 02:45:50;;;;;;;;;;;;;;;13.27;100.00;100080.09;4955611;28;19933;-74
2022/10/24 02:48:16;;;;;;;;;;;;;;;13.26;100.00;100079.28;4950214;28;20369;-74
2022/10/24 02:50:41;;;;;;;;;;;;;;;13.26;100.00;100083.72;4951078;28;19926;-74
2022/10/24 02:53:13;;;;;;;;;;;;;;;13.26;100.00;100081.94;4950370;28;19926;-74
2022/10/24 02:55:39;;;;;;;;;;;;;;;13.26;100.00;100081.06;4950797;28;20000;-74
2022/10/24 02:58:04;;;;;;;;;;;;;;;13.24;100.00;100075.84;4954929;28;20293;-74
2022/10/24 03:00:29;;;;;;;;;;;;;;;13.23;100.00;100073.31;4950086;28;19930;-74
2022/10/24 03:02:55;;;;;;;;;;;;;;;13.21;100.00;100070.75;4949861;28;20903;-75
2022/10/24 03:05:20;;;;;;;;;;;;;;;13.20;100.00;100069.06;4953990;28;20570;-74
2022/10/24 03:07:45;;;;;;;;;;;;;;;13.20;100.00;100074.38;4952659;28;19937;-74
2022/10/24 03:10:11;;;;;;;;;;;;;;;13.18;100.00;100061.19;4954735;28;20416;-74
2022/10/24 03:12:36;;;;;;;;;;;;;;;13.18;100.00;100066.50;4953774;28;19930;-74
2022/10/24 03:15:02;;;;;;;;;;;;;;;13.18;100.00;100070.94;4967495;28;20401;-74
2022/10/24 03:17:27;;;;;;;;;;;;;;;13.20;100.00;100062.88;4932122;28;20300;-74
2022/10/24 03:19:52;;;;;;;;;;;;;;;13.21;100.00;100061.91;4948708;28;19930;-74
2022/10/24 03:22:18;;;;;;;;;;;;;;;13.20;100.00;100061.09;4952214;28;19937;-74
2022/10/24 03:24:43;;;;;;;;;;;;;;;13.21;100.00;100054.81;4949435;28;19937;-74
2022/10/24 03:27:08;;;;;;;;;;;;;;;13.23;100.00;100052.88;4953104;28;19933;-74
2022/10/24 03:29:34;;;;;;;;;;;;;;;13.24;100.00;100059.06;4953838;28;20381;-74
2022/10/24 03:31:59;;;;;;;;;;;;;;;13.25;100.00;100056.28;4950308;28;19936;-74
2022/10/24 03:34:24;;;;;;;;;;;;;;;13.24;100.00;100067.03;4952125;28;19934;-74
2022/10/24 03:36:50;;;;;;;;;;;;;;;13.25;100.00;100063.41;4935943;28;19937;-74
2022/10/24 03:39:17;;;;;;;;;;;;;;;13.23;100.00;100071.50;4951388;28;20343;-74
2022/10/24 03:41:43;;;;;;;;;;;;;;;13.23;100.00;100063.50;4930330;28;19989;-74
2022/10/24 03:44:08;;;;;;;;;;;;;;;13.22;100.00;100063.63;4951270;28;20048;-75
2022/10/24 03:46:33;;;;;;;;;;;;;;;13.22;100.00;100063.63;4953746;28;20048;-74
2022/10/24 03:48:59;;;;;;;;;;;;;;;13.20;100.00;100065.53;4950277;28;20064;-74
2022/10/24 03:51:24;;;;;;;;;;;;;;;13.15;100.00;100069.38;4954182;28;20473;-74
2022/10/24 03:53:49;;;;;;;;;;;;;;;13.12;100.00;100066.91;4953068;28;19934;-74
2022/10/24 03:56:15;;;;;;;;;;;;;;;13.09;100.00;100060.97;4933848;28;19942;-74
2022/10/24 03:58:40;;;;;;;;;;;;;;;13.04;100.00;100059.47;4952864;28;19925;-74
2022/10/24 04:01:05;;;;;;;;;;;;;;;13.01;100.00;100054.38;4952599;28;20385;-74
2022/10/24 04:03:31;;;;;;;;;;;;;;;12.97;100.00;100050.22;4920768;28;19926;-74
2022/10/24 04:05:56;;;;;;;;;;;;;;;12.94;100.00;100044.25;4952465;28;19930;-74
2022/10/24 04:08:21;;;;;;;;;;;;;;;12.92;100.00;100049.69;4953992;28;19937;-74
2022/10/24 04:10:47;;;;;;;;;;;;;;;12.92;100.00;100046.16;4954056;28;19933;-74
2022/10/24 04:13:13;;;;;;;;;;;;;;;12.90;100.00;100041.81;4935035;28;19926;-74
2022/10/24 04:15:38;;;;;;;;;;;;;;;12.88;100.00;100037.56;4952739;28;19937;-74
2022/10/24 04:18:03;;;;;;;;;;;;;;;12.85;100.00;100033.31;4954204;28;19930;-74
2022/10/24 04:20:29;;;;;;;;;;;;;;;12.84;100.00;100046.69;4954349;28;20386;-74
2022/10/24 04:22:54;;;;;;;;;;;;;;;12.82;100.00;100046.81;4918278;28;20356;-74
2022/10/24 04:25:19;;;;;;;;;;;;;;;12.81;100.00;100050.41;4934919;28;19934;-74
2022/10/24 04:27:45;;;;;;;;;;;;;;;12.81;100.00;100044.25;4954176;28;19970;-74
2022/10/24 04:30:11;;;;;;;;;;;;;;;12.78;100.00;100042.66;4964888;28;19929;-74
2022/10/24 04:32:36;;;;;;;;;;;;;;;12.77;100.00;100048.91;4973882;28;20283;-74
2022/10/24 04:35:01;;;;;;;;;;;;;;;12.75;100.00;100053.50;4973529;28;19988;-74
2022/10/24 04:37:27;;;;;;;;;;;;;;;12.73;100.00;100050.94;4939376;28;19953;-74
2022/10/24 04:39:53;;;;;;;;;;;;;;;12.72;100.00;100049.22;4974376;28;20380;-74
2022/10/24 04:42:19;;;;;;;;;;;;;;;12.74;100.00;100051.75;4975166;28;19934;-74
2022/10/24 04:44:44;;;;;;;;;;;;;;;12.73;100.00;100040.31;4951062;28;20001;-75
2022/10/24 04:47:10;;;;;;;;;;;;;;;12.74;100.00;100043.78;4972926;28;19934;-74
2022/10/24 04:49:35;;;;;;;;;;;;;;;12.72;100.00;100037.75;4974335;28;20302;-74
2022/10/24 04:52:00;;;;;;;;;;;;;;;12.72;100.00;100043.06;4975360;28;19929;-74
2022/10/24 04:54:25;;;;;;;;;;;;;;;12.73;100.00;100040.31;4974560;28;19982;-74
2022/10/24 04:56:51;;;;;;;;;;;;;;;12.72;100.00;100035.97;4974822;28;21846;-74
2022/10/24 04:59:16;;;;;;;;;;;;;;;12.73;100.00;100045.63;4974008;28;19936;-74
2022/10/24 05:01:41;;;;;;;;;;;;;;;12.76;100.00;100049.88;4952915;28;19926;-74
2022/10/24 05:04:08;;;;;;;;;;;;;;;12.79;100.00;100038.19;4973802;28;19930;-74
2022/10/24 05:06:33;;;;;;;;;;;;;;;12.83;100.00;100045.84;4955436;28;19926;-74
2022/10/24 05:08:58;;;;;;;;;;;;;;;12.87;100.00;100043.84;4952187;28;19929;-74
2022/10/24 05:11:24;;;;;;;;;;;;;;;12.90;100.00;100047.13;4975144;28;20372;-74
2022/10/24 05:13:49;;;;;;;;;;;;;;;12.93;100.00;100047.88;4970944;28;19988;-74
2022/10/24 05:16:14;;;;;;;;;;;;;;;12.96;100.00;100053.00;4955269;28;19933;-74
2022/10/24 05:18:40;;;;;;;;;;;;;;;12.99;100.00;100040.34;4974980;28;19929;-74
2022/10/24 05:21:05;;;;;;;;;;;;;;;13.04;100.00;100048.00;4955619;28;20640;-74
2022/10/24 05:23:30;;;;;;;;;;;;;;;13.06;100.00;100043.41;4973417;28;19967;-74
2022/10/24 05:25:56;;;;;;;;;;;;;;;13.09;100.00;100040.56;4975408;28;20023;-75
2022/10/24 05:28:21;;;;;;;;;;;;;;;13.10;100.00;100036.94;4974362;28;19973;-75
2022/10/24 05:30:46;;;;;;;;;;;;;;;13.12;100.00;100031.50;4943256;28;19972;-74
2022/10/24 05:33:12;;;;;;;;;;;;;;;13.10;100.00;100026.31;4956686;28;19930;-74
2022/10/24 05:35:37;;;;;;;;;;;;;;;13.08;100.00;100033.53;4953624;28;19926;-73
2022/10/24 05:38:02;;;;;;;;;;;;;;;13.07;100.00;100031.81;4934947;28;19926;-74
2022/10/24 05:40:28;;;;;;;;;;;;;;;13.07;100.00;100026.50;4957390;28;19934;-74
2022/10/24 05:42:53;;;;;;;;;;;;;;;13.06;100.00;100032.78;4951096;28;19937;-74
2022/10/24 05:45:19;;;;;;;;;;;;;;;13.04;100.00;100026.75;4949994;28;20370;-74
2022/10/24 05:47:44;;;;;;;;;;;;;;;13.02;100.00;100024.19;4955568;28;20067;-74
2022/10/24 05:50:10;;;;;;;;;;;;;;;13.01;100.00;100024.28;4954548;28;19930;-74
2022/10/24 05:52:35;;;;;;;;;;;;;;;12.99;100.00;100023.53;4936404;28;20408;-74
2022/10/24 05:55:04;;;;;;;;;;;;;;;12.99;100.00;100020.88;4953502;28;19930;-74
2022/10/24 05:57:29;;;;;;;;;;;;;;;12.97;100.00;100025.47;4955029;28;19936;-74
2022/10/24 05:59:55;;;;;;;;;;;;;;;12.96;100.00;100015.81;4958105;28;19930;-74
2022/10/24 06:02:20;;;;;;;;;;;;;;;12.94;100.00;100023.00;4955046;28;20012;-74
2022/10/24 06:04:45;;;;;;;;;;;;;;;12.93;100.00;100021.31;4957752;28;19942;-74
2022/10/24 06:07:11;;;;;;;;;;;;;;;12.88;100.00;100016.31;4955256;28;19937;-74
2022/10/24 06:09:36;;;;;;;;;;;;;;;12.87;100.00;100017.28;4954403;28;20452;-74
2022/10/24 06:12:02;;;;;;;;;;;;;;;12.87;100.00;100019.94;4957704;28;20014;-74
2022/10/24 06:14:27;;;;;;;;;;;;;;;12.89;100.00;100021.53;4938663;28;20420;-75
2022/10/24 06:16:53;;;;;;;;;;;;;;;12.94;100.00;100015.03;4954856;28;19926;-74
2022/10/24 06:19:18;;;;;;;;;;;;;;;12.96;100.00;100018.47;4954753;28;19926;-74
2022/10/24 06:21:43;;;;;;;;;;;;;;;12.98;100.00;100011.22;4946298;28;20516;-75
2022/10/24 06:24:09;;;;;;;;;;;;;;;13.00;100.00;100019.94;4955312;28;20021;-74
2022/10/24 06:26:34;;;;;;;;;;;;;;;13.03;100.00;100020.56;4954243;28;20301;-74
2022/10/24 06:28:59;;;;;;;;;;;;;;;13.05;100.00;100017.81;4940514;28;19930;-74
2022/10/24 06:31:25;;;;;;;;;;;;;;;13.06;100.00;100014.19;4955202;28;19938;-74
2022/10/24 06:33:50;;;;;;;;;;;;;;;13.09;100.00;100023.75;4938308;28;20041;-74
2022/10/24 06:36:16;;;;;;;;;;;;;;;13.13;100.00;100022.59;4955038;28;19937;-75
2022/10/24 06:38:41;;;;;;;;;;;;;;;13.14;100.00;100025.13;4953545;28;20263;-75
2022/10/24 06:41:07;;;;;;;;;;;;;;;13.17;100.00;100026.72;4955358;28;20337;-74
2022/10/24 06:43:33;;;;;;;;;;;;;;;13.18;100.00;100012.47;4955237;28;20025;-75
2022/10/24 06:45:58;;;;;;;;;;;;;;;13.18;100.00;100025.78;4954163;28;19930;-75
2022/10/24 06:48:23;;;;;;;;;;;;;;;13.20;100.00;100030.97;4955069;28;19925;-74
2022/10/24 06:50:48;;;;;;;;;;;;;;;13.22;100.00;100032.59;4953389;28;19967;-75
2022/10/24 06:53:14;;;;;;;;;;;;;;;13.24;100.00;100035.97;4929387;28;19997;-75
2022/10/24 06:55:39;;;;;;;;;;;;;;;13.28;100.00;100034.81;4951449;28;20370;-74
2022/10/24 06:58:05;;;;;;;;;;;;;;;13.33;100.00;100031.00;4954267;28;19934;-74
2022/10/24 07:00:31;;;;;;;;;;;;;;;13.37;100.00;100040.44;4929764;28;19926;-74
2022/10/24 07:02:58;;;;;;;;;;;;;;;13.40;100.00;100035.75;4951393;28;19926;-74
2022/10/24 07:05:23;;;;;;;;;;;;;;;13.44;100.00;100034.59;4934970;28;20297;-75
2022/10/24 07:07:48;;;;;;;;;;;;;;;13.49;100.00;100041.41;4950605;28;19941;-74
2022/10/24 07:10:14;;;;;;;;;;;;;;;13.52;100.00;100041.22;4936147;28;19941;-74
2022/10/24 07:12:39;;;;;;;;;;;;;;;13.54;100.00;100041.94;4919062;28;21533;-74
2022/10/24 07:15:05;;;;;;;;;;;;;;;13.57;100.00;100047.91;4919766;28;19930;-75
2022/10/24 07:17:30;;;;;;;;;;;;;;;13.59;100.00;100053.09;4952633;28;19937;-75
2022/10/24 07:19:56;;;;;;;;;;;;;;;13.62;100.00;100052.88;4952163;28;20405;-76
2022/10/24 07:22:21;;;;;;;;;;;;;;;13.64;100.00;100052.78;4953465;28;19930;-76
2022/10/24 07:24:53;;;;;;;;;;;;;;;13.66;100.00;100041.06;4932833;28;20686;-76
2022/10/24 07:27:19;;;;;;;;;;;;;;;13.70;100.00;100060.31;4934229;28;19973;-75
2022/10/24 07:29:44;;;;;;;;;;;;;;;13.73;100.00;100060.09;4953268;28;21108;-75
2022/10/24 07:32:09;;;;;;;;;;;;;;;13.77;100.00;100066.06;4953928;28;20179;-75
2022/10/24 07:34:35;;;;;;;;;;;;;;;13.77;100.00;100061.59;4933338;28;20033;-75
2022/10/24 07:37:04;;;;;;;;;;;;;;;13.75;100.00;100065.31;4953660;28;19938;-75
2022/10/24 07:39:30;;;;;;;;;;;;;;;13.75;100.00;100065.31;4936722;28;19938;-75
2022/10/24 07:41:55;;;;;;;;;;;;;;;13.74;100.00;100056.50;4922182;28;19926;-75
2022/10/24 07:44:21;;;;;;;;;;;;;;;13.77;100.00;100066.06;4953756;28;20382;-74
2022/10/24 07:46:46;;;;;;;;;;;;;;;13.81;100.00;100065.75;4948151;28;20452;-75
2022/10/24 07:49:12;;;;;;;;;;;;;;;13.85;100.00;100066.38;4927621;28;19935;-75
2022/10/24 07:51:37;;;;;;;;;;;;;;;13.88;100.00;100063.47;4949885;28;20528;-75
2022/10/24 07:54:02;;;;;;;;;;;;;;;13.90;100.00;100066.88;4952691;28;19940;-74
2022/10/24 07:56:28;;;;;;;;;;;;;;;13.95;100.00;100059.41;4933015;28;19930;-75
2022/10/24 07:58:54;;;;;;;;;;;;;;;13.96;100.00;100077.06;4951149;28;19941;-76
2022/10/24 08:01:21;;;;;;;;;;;;;;;13.99;100.00;100071.53;4950906;28;20588;-75
2022/10/24 08:03:47;;;;;;;;;;;;;;;14.01;100.00;100076.75;4934078;28;19926;-76
2022/10/24 08:06:14;;;;;;;;;;;;;;;13.99;100.00;100076.88;4928976;28;19930;-75
2022/10/24 08:08:39;;;;;;;;;;;;;;;14.03;100.00;100092.59;4954126;28;19937;-75
2022/10/24 08:11:08;;;;;;;;;;;;;;;14.05;100.00;100080.06;4933241;28;19965;-76
2022/10/24 08:13:34;;;;;;;;;;;;;;;14.07;100.00;100088.75;4953155;28;20557;-75
2022/10/24 08:15:59;;;;;;;;;;;;;;;14.11;100.00;100096.41;4956399;28;19934;-75
2022/10/24 08:18:24;;;;;;;;;;;;;;;14.10;100.00;100086.72;4957870;28;19930;-75
2022/10/24 08:20:59;;;;;;;;;;;;;;;14.11;100.00;100092.91;4957806;28;19930;-75
2022/10/24 08:23:25;;;;;;;;;;;;;;;14.11;100.00;100088.44;4936421;28;19934;-75
2022/10/24 08:25:51;;;;;;;;;;;;;;;14.11;100.00;100087.59;4939076;28;19972;-75
2022/10/24 08:28:16;;;;;;;;;;;;;;;14.11;100.00;100087.59;4936941;28;19965;-74
2022/10/24 08:30:42;;;;;;;;;;;;;;;14.09;100.00;100078.84;4947500;28;19934;-74
2022/10/24 08:33:10;;;;;;;;;;;;;;;14.09;100.00;100092.16;4971673;28;19926;-75
2022/10/24 08:35:35;;;;;;;;;;;;;;;14.09;100.00;100089.50;4955881;28;19957;-75
2022/10/24 08:38:00;;;;;;;;;;;;;;;14.08;100.00;100101.97;4951556;28;21478;-76
2022/10/24 08:40:26;;;;;;;;;;;;;;;14.05;100.00;100096.84;4955988;28;19934;-76
2022/10/24 08:42:51;;;;;;;;;;;;;;;14.05;100.00;100106.66;4952018;28;20000;-75
2022/10/24 08:45:33;;;;;;;;;;;;;;;14.08;100.00;100109.97;4939191;28;19930;-75
2022/10/24 08:48:06;;;;;;;;;;;;;;;14.11;100.00;100112.38;4952147;28;19934;-75
2022/10/24 08:50:34;;;;;;;;;;;;;;;14.18;100.00;100107.47;4952804;28;19933;-75
2022/10/24 08:53:00;;;;;;;;;;;;;;;14.22;100.00;100108.94;4956362;28;20437;-76
2022/10/24 08:55:34;;;;;;;;;;;;;;;14.26;100.00;100110.44;4956876;28;19996;-75
2022/10/24 08:58:02;;;;;;;;;;;;;;;14.33;100.00;100109.97;4956545;28;19955;-78
2022/10/24 09:00:30;;;;;;;;;;;;;;;14.42;100.00;100122.59;4954803;28;19930;-75
2022/10/24 09:03:16;;;;;;;;;;;;;;;14.51;100.00;100124.59;4969719;28;20056;-75
2022/10/24 09:05:42;;;;;;;;;;;;;;;14.61;100.00;100129.25;4955146;28;20401;-76
2022/10/24 09:08:20;;;;;;;;;;;;;;;14.67;100.00;100107.50;4956469;28;20016;-77
2022/10/24 09:10:47;;;;;;;;;;;;;;;14.69;100.00;100115.34;4952511;28;19937;-76
2022/10/24 09:13:13;;;;;;;;;;;;;;;14.71;100.00;100118.78;4952413;28;20078;-74
2022/10/24 09:15:38;;;;;;;;;;;;;;;14.72;100.00;100124.00;4952400;28;19976;-76
2022/10/24 09:18:08;;;;;;;;;;;;;;;14.75;100.00;100121.13;4948506;28;20408;-76
2022/10/24 09:20:33;;;;;;;;;;;;;;;14.83;100.00;100119.69;4951857;28;19930;-76
2022/10/24 09:23:00;;;;;;;;;;;;;;;14.87;100.00;100123.84;4934833;28;20306;-75
2022/10/24 09:25:28;;;;;;;;;;;;;;;14.90;100.00;100118.25;4951633;28;19941;-75
2022/10/24 09:27:54;;;;;;;;;;;;;;;14.90;100.00;100136.91;4940262;28;19932;-75
2022/10/24 09:30:21;;;;;;;;;;;;;;;14.87;100.00;100131.84;4936497;28;19938;-75
2022/10/24 09:32:46;;;;;;;;;;;;;;;14.80;100.00;100128.75;4947141;28;20496;-75
2022/10/24 09:35:19;;;;;;;;;;;;;;;14.74;100.00;100147.88;4954473;28;19930;-75
2022/10/24 09:37:51;;;;;;;;;;;;;;;14.72;100.00;100144.44;4935145;28;20390;-76
2022/10/24 09:40:23;;;;;;;;;;;;;;;14.70;100.00;100154.38;4954698;28;19918;-75
2022/10/24 09:42:52;;;;;;;;;;;;;;;14.69;100.00;100169.50;4956153;28;20385;-75
2022/10/24 09:45:37;;;;;;;;;;;;;;;14.72;100.00;100165.75;4955983;28;20025;-74
2022/10/24 09:48:06;;;;;;;;;;;;;;;14.72;100.00;100169.28;4953394;28;20350;-74
2022/10/24 09:50:32;;;;;;;;;;;;;;;14.70;100.00;100181.84;4955414;28;19934;-79
2022/10/24 09:52:57;;;;;;;;;;;;;;;14.60;100.00;100186.16;4954044;28;19926;-75
2022/10/24 09:55:26;;;;;;;;;;;;;;;14.45;100.00;100196.97;4951430;28;21478;-75
2022/10/24 09:57:52;;;;;;;;;;;;;;;14.30;100.00;100196.25;4955136;28;19926;-75
2022/10/24 10:00:28;;;;;;;;;;;;;;;14.19;100.00;100205.00;4954613;28;19941;-76
2022/10/24 10:03:18;;;;;;;;;;;;;;;14.11;100.00;100202.88;4949780;28;20377;-75
2022/10/24 10:05:45;;;;;;;;;;;;;;;14.03;100.00;100199.03;4956244;28;19932;-75
2022/10/24 10:08:11;;;;;;;;;;;;;;;14.01;100.00;100206.28;4955726;28;20028;-75
2022/10/24 10:10:36;;;;;;;;;;;;;;;14.05;100.00;100197.97;4956982;28;19957;-75
2022/10/24 10:13:05;;;;;;;;;;;;;;;14.14;100.00;100191.16;4956006;28;20460;-77
2022/10/24 10:15:32;;;;;;;;;;;;;;;14.22;100.00;100210.09;4952678;28;20301;-77
2022/10/24 10:18:24;;;;;;;;;;;;;;;14.32;100.00;100214.78;4970645;28;20605;-76
2022/10/24 10:21:11;;;;;;;;;;;;;;;14.38;100.00;100219.66;4951484;28;20521;-77
2022/10/24 10:23:40;;;;;;;;;;;;;;;14.46;100.00;100211.13;4954114;28;19934;-78
2022/10/24 10:26:11;;;;;;;;;;;;;;;14.50;100.00;100218.78;4954632;28;20531;-77
2022/10/24 10:28:45;;;;;;;;;;;;;;;14.52;100.00;100227.53;4955712;28;20025;-77
2022/10/24 10:31:13;;;;;;;;;;;;;;;14.55;100.00;100234.44;4950150;28;20286;-76
2022/10/24 10:33:50;;;;;;;;;;;;;;;14.58;100.00;100233.34;4935579;28;19929;-77
2022/10/24 10:36:17;;;;;;;;;;;;;;;14.62;100.00;100242.81;4951731;28;20005;-76
2022/10/24 10:38:54;;;;;;;;;;;;;;;14.70;100.00;100250.28;4947740;28;20385;-77
2022/10/24 10:41:19;;;;;;;;;;;;;;;14.75;100.00;100241.00;4950795;28;19926;-77
2022/10/24 10:43:57;;;;;;;;;;;;;;;14.76;100.00;100244.53;4937403;28;20425;-77
2022/10/24 10:46:41;;;;;;;;;;;;;;;14.78;100.00;100254.09;4951887;28;19925;-77
2022/10/24 10:49:19;;;;;;;;;;;;;;;14.80;100.00;100243.34;4949088;28;19926;-75
2022/10/24 10:52:11;;;;;;;;;;;;;;;14.80;100.00;100246.00;4952652;28;19930;-76
2022/10/24 10:54:55;;;;;;;;;;;;;;;14.78;100.00;100238.09;4952386;28;19930;-74
2022/10/24 10:57:25;;;;;;;;;;;;;;;14.73;100.00;100258.03;4954303;28;19926;-74
2022/10/24 11:00:09;;;;;;;;;;;;;;;14.66;100.00;100266.47;4926603;28;19929;-75
2022/10/24 11:02:34;;;;;;;;;;;;;;;14.67;100.00;100262.00;4954980;28;20409;-75
2022/10/24 11:05:09;;;;;;;;;;;;;;;14.71;100.00;100260.81;4971054;28;19926;-74
2022/10/24 11:07:44;;;;;;;;;;;;;;;14.74;100.00;100265.09;4953669;28;20410;-75
2022/10/24 11:10:11;;;;;;;;;;;;;;;14.75;100.00;100265.00;4955196;28;20282;-75
2022/10/24 11:12:37;;;;;;;;;;;;;;;14.74;100.00;100262.44;4954473;28;19969;-76
2022/10/24 11:15:05;;;;;;;;;;;;;;;14.73;100.00;100272.22;4950865;28;20594;-75
2022/10/24 11:17:36;;;;;;;;;;;;;;;14.74;100.00;100273.94;4936290;28;19930;-75
2022/10/24 11:20:01;;;;;;;;;;;;;;;14.79;100.00;100271.81;4949314;28;19926;-75
2022/10/24 11:22:33;;;;;;;;;;;;;;;14.84;100.00;100267.94;4954199;28;19937;-75
2022/10/24 11:25:04;;;;;;;;;;;;;;;14.89;100.00;100282.66;4934181;28;20009;-77
2022/10/24 11:27:33;;;;;;;;;;;;;;;14.92;100.00;100277.09;4948769;28;21663;-76
2022/10/24 11:30:06;;;;;;;;;;;;;;;14.93;100.00;100288.59;4935075;28;19993;-76
2022/10/24 11:32:40;;;;;;;;;;;;;;;14.91;100.00;100293.19;4954601;28;19927;-76
2022/10/24 11:35:23;;;;;;;;;;;;;;;14.89;100.00;100295.13;4925513;28;19988;-76
2022/10/24 11:37:49;;;;;;;;;;;;;;;14.87;100.00;100305.88;4930653;28;20080;-77
2022/10/24 11:40:22;;;;;;;;;;;;;;;14.89;100.00;100308.44;4933332;28;19930;-77
2022/10/24 11:42:49;;;;;;;;;;;;;;;14.91;100.00;100314.50;4935631;28;19926;-76
2022/10/24 11:45:19;;;;;;;;;;;;;;;14.88;100.00;100302.25;4933706;28;19936;-76
2022/10/24 11:47:47;;;;;;;;;;;;;;;14.85;100.00;100306.94;4934789;28;19937;-76
2022/10/24 11:50:27;;;;;;;;;;;;;;;14.86;100.00;100303.34;4953706;28;19933;-75
2022/10/24 11:53:11;;;;;;;;;;;;;;;14.85;100.00;100317.59;4958807;28;19952;-78
2022/10/24 11:55:37;;;;;;;;;;;;;;;14.87;100.00;100321.03;4941501;28;20335;-76
2022/10/24 11:58:13;;;;;;;;;;;;;;;14.87;100.00;100318.38;4939385;28;19996;-77
2022/10/24 12:00:41;;;;;;;;;;;;;;;14.87;100.00;100337.84;4939590;28;19989;-76
2022/10/24 12:03:26;;;;;;;;;;;;;;;14.90;100.00;100356.31;4958592;28;19931;-77
2022/10/24 12:05:56;;;;;;;;;;;;;;;14.94;100.00;100339.13;4958505;28;19930;-76
2022/10/24 12:08:25;;;;;;;;;;;;;;;15.00;100.00;100332.50;4926826;28;20021;-76
2022/10/24 12:10:57;;;;;;;;;;;;;;;15.06;100.00;100340.06;4941038;28;19931;-77
2022/10/24 12:13:27;;;;;;;;;;;;;;;15.17;100.00;100349.09;4957727;28;19973;-76
2022/10/24 12:15:56;;;;;;;;;;;;;;;15.21;100.00;100350.56;4936384;28;19926;-76
2022/10/24 12:18:35;;;;;;;;;;;;;;;15.21;100.00;100355.91;4958347;28;20090;-76
2022/10/24 12:21:02;;;;;;;;;;;;;;;15.14;100.00;100352.81;4926383;28;19937;-77
2022/10/24 12:23:28;;;;;;;;;;;;;;;15.11;100.00;100360.19;4938397;28;20032;-76
2022/10/24 12:26:00;;;;;;;;;;;;;;;15.03;100.00;100369.59;4940734;28;20029;-76
2022/10/24 12:28:26;;;;;;;;;;;;;;;14.97;100.00;100366.53;4958259;28;19930;-76
2022/10/24 12:31:14;;;;;;;;;;;;;;;14.92;100.00;100369.50;4965728;28;19926;-77
2022/10/24 12:33:43;;;;;;;;;;;;;;;14.91;100.00;100370.47;4958202;28;19925;-76